Time;durP1;ratioP1;P1;durP2;ratioP2;P2;SDS_P1;SDS_P2;PMS_P1;PMS_P2;Temp;Humidity;BMP_temperature;BMP_pressure;BME280_temperature;BME280_humidity;BME280_pressure;Samples;Min_cycle;Max_cycle;Signal;HPM_P1;HPM_P2
2021/04/17 00:01:48;;;;;;;22.10;10.77;;;2.20;80.80;;;;;;4995733;28;20037;-75
2021/04/17 00:04:14;;;;;;;15.73;10.73;;;2.00;81.40;;;;;;4978132;28;20142;-75
2021/04/17 00:06:40;;;;;;;21.92;11.45;;;2.10;82.80;;;;;;4994144;28;20073;-75
2021/04/17 00:09:14;;;;;;;18.00;10.98;;;2.10;81.80;;;;;;4995512;28;20482;-76
2021/04/17 00:11:41;;;;;;;19.50;11.35;;;2.20;82.90;;;;;;4995503;28;20037;-75
2021/04/17 00:14:11;;;;;;;17.58;12.23;;;2.30;82.70;;;;;;4994192;28;20061;-75
2021/04/17 00:16:37;;;;;;;20.08;12.27;;;2.30;82.00;;;;;;4995187;28;20509;-75
2021/04/17 00:19:04;;;;;;;21.20;12.40;;;2.20;83.30;;;;;;4995288;28;20054;-75
2021/04/17 00:21:30;;;;;;;17.98;11.80;;;2.20;83.00;;;;;;4995266;28;20084;-75
2021/04/17 00:23:56;;;;;;;21.67;12.07;;;2.20;83.40;;;;;;4995299;28;20382;-75
2021/04/17 00:26:22;;;;;;;17.35;11.00;;;2.30;82.70;;;;;;4992451;28;20093;-75
2021/04/17 00:28:48;;;;;;;21.25;13.18;;;2.20;81.70;;;;;;4995151;28;20027;-75
2021/04/17 00:31:13;;;;;;;19.92;12.75;;;2.30;83.10;;;;;;4993766;28;20031;-75
2021/04/17 00:33:39;;;;;;;21.83;12.77;;;2.40;82.30;;;;;;4995166;28;20038;-75
2021/04/17 00:36:05;;;;;;;20.83;12.00;;;2.50;83.00;;;;;;4994804;28;20076;-75
2021/04/17 00:38:31;;;;;;;26.98;12.68;;;2.60;82.30;;;;;;4993669;28;20057;-75
2021/04/17 00:40:58;;;;;;;41.10;14.45;;;2.60;82.30;;;;;;4994951;28;20022;-75
2021/04/17 00:43:25;;;;;;;24.08;12.25;;;2.50;82.20;;;;;;4993891;28;20039;-76
2021/04/17 00:45:51;;;;;;;23.88;12.80;;;2.50;82.30;;;;;;4994684;28;20026;-75
2021/04/17 00:48:16;;;;;;;22.20;12.05;;;2.50;82.20;;;;;;4993506;28;20038;-75
2021/04/17 00:50:42;;;;;;;21.40;13.18;;;2.50;82.80;;;;;;4994714;28;20034;-75
2021/04/17 00:53:09;;;;;;;19.83;12.40;;;2.60;82.80;;;;;;4993513;28;20482;-76
2021/04/17 00:55:35;;;;;;;19.75;12.05;;;2.70;81.60;;;;;;4994594;28;20034;-76
2021/04/17 00:58:03;;;;;;;20.30;12.45;;;2.70;81.10;;;;;;4992917;28;20072;-76
2021/04/17 01:00:29;;;;;;;19.95;12.10;;;2.70;81.60;;;;;;4994587;28;20026;-75
2021/04/17 01:03:02;;;;;;;20.85;13.38;;;2.70;81.70;;;;;;4994632;28;20481;-75
2021/04/17 01:05:31;;;;;;;19.42;11.27;;;2.70;81.70;;;;;;4994571;28;20161;-75
2021/04/17 01:07:58;;;;;;;21.70;12.30;;;2.60;79.70;;;;;;4993114;28;20030;-76
2021/04/17 01:10:37;;;;;;;22.45;12.63;;;2.40;81.10;;;;;;4994061;28;20026;-75
2021/04/17 01:13:03;;;;;;;18.88;12.10;;;2.50;81.90;;;;;;4992996;28;20029;-75
2021/04/17 01:15:29;;;;;;;19.52;12.75;;;2.20;82.30;;;;;;4992964;28;20026;-75
2021/04/17 01:17:57;;;;;;;20.42;11.75;;;2.20;81.90;;;;;;4994070;28;20037;-76
2021/04/17 01:20:41;;;;;;;17.88;11.60;;;2.10;83.20;;;;;;4993053;28;20482;-75
2021/04/17 01:23:29;;;;;;;21.75;13.35;;;2.10;82.90;;;;;;4993075;28;20018;-76
2021/04/17 01:25:56;;;;;;;19.33;12.35;;;2.00;83.40;;;;;;4993921;28;20101;-75
2021/04/17 01:28:24;;;;;;;19.63;12.90;;;2.10;84.10;;;;;;4994110;28;20053;-75
2021/04/17 01:30:53;;;;;;;20.23;11.90;;;2.10;84.00;;;;;;4992755;28;20031;-75
2021/04/17 01:33:20;;;;;;;32.42;12.38;;;2.10;84.00;;;;;;4993897;28;20030;-75
2021/04/17 01:35:48;;;;;;;20.63;13.02;;;2.00;83.80;;;;;;4993718;28;20037;-74
2021/04/17 01:38:28;;;;;;;22.20;12.05;;;1.90;84.60;;;;;;4993339;28;20026;-75
2021/04/17 01:41:02;;;;;;;19.05;13.02;;;1.90;84.10;;;;;;4992555;28;20060;-76
2021/04/17 01:43:29;;;;;;;18.20;12.27;;;1.80;84.50;;;;;;4993892;28;20026;-75
2021/04/17 01:46:06;;;;;;;18.50;12.07;;;1.90;84.30;;;;;;4993812;28;20022;-75
2021/04/17 01:48:32;;;;;;;19.42;11.98;;;2.00;85.00;;;;;;4976200;28;20034;-76
2021/04/17 01:50:59;;;;;;;24.58;12.48;;;2.10;84.20;;;;;;5008790;28;20029;-76
2021/04/17 01:53:30;;;;;;;19.95;12.48;;;2.10;83.20;;;;;;4993817;28;20402;-75
2021/04/17 01:55:58;;;;;;;23.08;13.65;;;2.20;83.90;;;;;;4993301;28;20054;-75
2021/04/17 01:58:30;;;;;;;19.98;13.32;;;2.20;84.10;;;;;;4993033;28;20073;-75
2021/04/17 02:00:57;;;;;;;22.65;12.68;;;2.10;84.90;;;;;;4992219;28;20043;-75
2021/04/17 02:03:23;;;;;;;24.40;14.02;;;1.90;84.70;;;;;;4992275;28;20042;-76
2021/04/17 02:05:51;;;;;;;22.25;13.50;;;1.90;85.10;;;;;;4993153;28;20030;-75
2021/04/17 02:08:17;;;;;;;21.50;12.80;;;2.00;85.30;;;;;;4993366;28;20076;-76
2021/04/17 02:10:45;;;;;;;18.73;12.07;;;2.00;85.00;;;;;;4993266;28;20030;-75
2021/04/17 02:13:12;;;;;;;19.73;13.07;;;2.00;84.00;;;;;;4993197;28;20028;-75
2021/04/17 02:15:40;;;;;;;20.30;12.68;;;1.90;85.80;;;;;;4993044;28;20503;-75
2021/04/17 02:18:24;;;;;;;30.30;13.55;;;2.10;86.10;;;;;;4992027;28;20398;-75
2021/04/17 02:21:19;;;;;;;21.67;13.07;;;2.10;85.70;;;;;;4993241;28;20474;-75
2021/04/17 02:23:46;;;;;;;18.70;12.75;;;2.20;85.10;;;;;;4989244;28;20516;-75
2021/04/17 02:26:13;;;;;;;21.58;13.45;;;2.10;86.30;;;;;;4991681;28;20025;-76
2021/04/17 02:28:40;;;;;;;22.17;13.32;;;2.20;84.00;;;;;;4993052;28;20038;-76
2021/04/17 02:31:06;;;;;;;27.20;13.00;;;2.10;85.20;;;;;;4991612;28;20038;-75
2021/04/17 02:33:31;;;;;;;21.02;13.35;;;2.00;85.70;;;;;;4992968;28;20038;-74
2021/04/17 02:35:57;;;;;;;22.42;14.27;;;2.00;85.80;;;;;;4991399;28;20058;-75
2021/04/17 02:38:23;;;;;;;21.45;14.02;;;2.00;87.50;;;;;;4991665;28;20027;-75
2021/04/17 02:40:49;;;;;;;27.30;15.52;;;2.00;87.60;;;;;;4992810;28;20030;-75
2021/04/17 02:43:15;;;;;;;23.13;14.05;;;2.10;87.80;;;;;;4991567;28;20033;-75
2021/04/17 02:45:40;;;;;;;21.52;13.43;;;2.20;86.10;;;;;;4992591;28;20026;-75
2021/04/17 02:48:06;;;;;;;28.60;15.77;;;2.20;87.60;;;;;;4992455;28;20029;-75
2021/04/17 02:50:32;;;;;;;24.75;13.50;;;2.00;87.90;;;;;;4992410;28;20481;-75
2021/04/17 02:52:58;;;;;;;23.38;13.50;;;2.00;89.20;;;;;;4992667;28;20088;-75
2021/04/17 02:55:24;;;;;;;25.83;14.70;;;2.10;88.00;;;;;;4992726;28;20030;-75
2021/04/17 02:57:50;;;;;;;21.40;13.52;;;2.10;88.30;;;;;;4992056;28;20041;-75
2021/04/17 03:00:20;;;;;;;27.25;15.00;;;2.00;89.70;;;;;;5007849;28;20018;-75
2021/04/17 03:02:46;;;;;;;21.40;12.88;;;2.10;90.10;;;;;;4991339;28;20506;-75
2021/04/17 03:05:12;;;;;;;23.85;14.68;;;2.10;90.40;;;;;;4991456;28;20030;-75
2021/04/17 03:07:38;;;;;;;24.60;15.48;;;2.00;90.20;;;;;;4991164;28;20033;-75
2021/04/17 03:10:07;;;;;;;25.60;15.07;;;2.00;90.60;;;;;;4992567;28;20133;-75
2021/04/17 03:12:33;;;;;;;22.77;15.10;;;2.00;91.30;;;;;;4991270;28;20050;-75
2021/04/17 03:14:59;;;;;;;22.95;13.18;;;2.00;90.90;;;;;;4992521;28;20034;-75
2021/04/17 03:17:25;;;;;;;23.65;14.18;;;2.00;91.00;;;;;;4992187;28;20027;-75
2021/04/17 03:19:50;;;;;;;25.77;14.38;;;2.20;91.20;;;;;;4992504;28;20026;-74
2021/04/17 03:22:16;;;;;;;20.95;13.50;;;2.10;91.10;;;;;;5007521;28;20026;-75
2021/04/17 03:24:42;;;;;;;21.85;14.15;;;2.20;91.70;;;;;;4992423;28;20026;-75
2021/04/17 03:27:08;;;;;;;22.60;13.80;;;2.20;91.90;;;;;;4992202;28;20101;-75
2021/04/17 03:29:34;;;;;;;25.75;14.93;;;2.10;91.40;;;;;;5007572;28;20023;-75
2021/04/17 03:32:00;;;;;;;21.00;13.75;;;2.20;91.70;;;;;;5007322;28;20509;-75
2021/04/17 03:34:26;;;;;;;21.83;13.93;;;2.10;91.60;;;;;;5007507;28;20022;-76
2021/04/17 03:36:52;;;;;;;21.67;14.38;;;2.00;92.00;;;;;;4992090;28;20037;-75
2021/04/17 03:39:18;;;;;;;26.60;14.32;;;2.10;92.10;;;;;;4992255;28;20398;-75
2021/04/17 03:41:44;;;;;;;29.13;14.90;;;2.20;92.20;;;;;;4992258;28;20023;-75
2021/04/17 03:44:10;;;;;;;22.52;14.85;;;2.20;92.40;;;;;;4992288;28;20026;-76
2021/04/17 03:46:37;;;;;;;28.38;15.02;;;2.20;92.70;;;;;;4990723;28;20034;-75
2021/04/17 03:49:03;;;;;;;24.67;14.38;;;2.10;92.80;;;;;;4991057;28;20092;-75
2021/04/17 03:51:29;;;;;;;24.30;13.85;;;2.20;92.90;;;;;;4992211;28;20023;-75
2021/04/17 03:53:54;;;;;;;24.48;14.45;;;2.30;91.80;;;;;;4990919;28;20026;-75
2021/04/17 03:56:20;;;;;;;21.48;13.63;;;2.30;92.40;;;;;;4991786;28;20030;-75
2021/04/17 03:58:46;;;;;;;25.60;14.20;;;2.40;92.80;;;;;;4991737;28;20044;-75
2021/04/17 04:01:12;;;;;;;23.40;14.75;;;2.30;92.60;;;;;;4993408;28;20022;-75
2021/04/17 04:03:38;;;;;;;31.58;13.95;;;2.30;93.10;;;;;;4995660;28;20038;-75
2021/04/17 04:06:04;;;;;;;21.10;13.95;;;2.30;92.50;;;;;;4994011;28;20088;-76
2021/04/17 04:08:30;;;;;;;26.10;15.35;;;2.20;92.50;;;;;;4995600;28;20069;-75
2021/04/17 04:10:56;;;;;;;21.73;14.23;;;2.20;94.20;;;;;;4994236;28;20084;-75
2021/04/17 04:13:22;;;;;;;22.05;13.45;;;2.20;94.10;;;;;;4995610;28;20034;-76
2021/04/17 04:15:48;;;;;;;24.98;14.63;;;2.20;94.90;;;;;;4993939;28;20022;-75
2021/04/17 04:18:13;;;;;;;21.90;13.25;;;2.30;93.90;;;;;;4995262;28;20091;-75
2021/04/17 04:20:39;;;;;;;24.33;15.27;;;2.50;93.80;;;;;;4994071;28;20026;-76
2021/04/17 04:23:05;;;;;;;27.02;14.25;;;2.50;93.50;;;;;;4995260;28;20517;-75
2021/04/17 04:25:31;;;;;;;24.08;15.38;;;2.50;92.90;;;;;;4994051;28;20030;-75
2021/04/17 04:27:57;;;;;;;23.60;13.93;;;2.50;93.30;;;;;;4993716;28;20031;-75
2021/04/17 04:30:24;;;;;;;26.77;16.30;;;2.50;93.00;;;;;;4995203;28;20410;-75
2021/04/17 04:32:50;;;;;;;28.80;14.70;;;2.50;93.20;;;;;;4995068;28;20427;-75
2021/04/17 04:35:16;;;;;;;25.75;15.25;;;2.60;93.60;;;;;;4995073;28;20106;-75
2021/04/17 04:37:42;;;;;;;25.23;14.80;;;2.60;92.80;;;;;;4994733;28;20110;-75
2021/04/17 04:40:09;;;;;;;24.73;15.15;;;2.60;92.30;;;;;;4993694;28;20555;-75
2021/04/17 04:42:35;;;;;;;24.17;14.93;;;2.80;92.70;;;;;;4995030;28;20124;-75
2021/04/17 04:45:03;;;;;;;23.92;14.57;;;2.90;92.60;;;;;;4993694;28;20037;-75
2021/04/17 04:47:29;;;;;;;23.60;15.30;;;2.80;91.50;;;;;;4994704;28;20034;-75
2021/04/17 04:49:54;;;;;;;22.65;14.88;;;2.70;92.40;;;;;;4994885;28;20105;-76
2021/04/17 04:52:20;;;;;;;23.77;15.65;;;2.80;92.10;;;;;;4993616;28;20482;-75
2021/04/17 04:54:46;;;;;;;23.38;15.82;;;2.80;91.60;;;;;;4994742;28;20044;-75
2021/04/17 04:57:11;;;;;;;24.65;14.98;;;2.80;91.80;;;;;;4994019;28;20034;-75
2021/04/17 04:59:37;;;;;;;23.35;15.27;;;2.80;92.20;;;;;;4994639;28;20023;-75
2021/04/17 05:02:03;;;;;;;43.25;15.30;;;3.00;92.10;;;;;;4994502;28;20029;-75
2021/04/17 05:04:29;;;;;;;25.40;15.30;;;3.10;91.70;;;;;;4994613;28;20026;-75
2021/04/17 05:06:55;;;;;;;28.02;15.05;;;3.00;90.90;;;;;;4994153;28;20031;-74
2021/04/17 05:09:21;;;;;;;37.13;14.98;;;3.10;91.30;;;;;;4994494;28;20105;-75
2021/04/17 05:11:47;;;;;;;34.67;16.63;;;3.10;90.90;;;;;;4992454;28;20113;-75
2021/04/17 05:14:13;;;;;;;30.40;15.88;;;3.30;91.00;;;;;;4994404;28;20030;-76
2021/04/17 05:16:39;;;;;;;37.15;20.83;;;3.40;90.80;;;;;;4994160;28;20082;-75
2021/04/17 05:19:05;;;;;;;58.97;30.23;;;3.30;90.30;;;;;;4992942;28;20109;-75
2021/04/17 05:21:30;;;;;;;33.22;21.17;;;3.20;90.10;;;;;;4994140;28;20450;-75
2021/04/17 05:23:56;;;;;;;29.75;18.35;;;3.10;90.80;;;;;;4994147;28;20018;-75
2021/04/17 05:26:22;;;;;;;26.58;15.55;;;3.10;90.70;;;;;;4993963;28;20030;-75
2021/04/17 05:28:48;;;;;;;21.60;13.13;;;3.10;90.80;;;;;;4992765;28;20022;-75
2021/04/17 05:31:14;;;;;;;22.55;15.07;;;3.00;90.60;;;;;;4993929;28;20065;-75
2021/04/17 05:33:40;;;;;;;29.27;15.73;;;3.00;90.50;;;;;;4992779;28;20038;-75
2021/04/17 05:36:06;;;;;;;25.95;15.80;;;3.00;90.80;;;;;;4993679;28;20520;-75
2021/04/17 05:38:32;;;;;;;26.70;15.88;;;3.10;91.20;;;;;;4992535;28;20469;-76
2021/04/17 05:40:57;;;;;;;26.17;15.73;;;3.20;91.10;;;;;;4993808;28;20022;-76
2021/04/17 05:43:23;;;;;;;32.33;18.83;;;3.20;91.30;;;;;;4976388;28;20026;-75
2021/04/17 05:45:49;;;;;;;28.80;17.08;;;3.30;90.90;;;;;;4993596;28;20101;-76
2021/04/17 05:48:14;;;;;;;34.88;16.48;;;3.30;91.00;;;;;;4993737;28;20488;-76
2021/04/17 05:50:40;;;;;;;26.45;15.63;;;3.30;91.10;;;;;;4993638;28;20034;-75
2021/04/17 05:53:06;;;;;;;23.98;14.45;;;3.40;90.70;;;;;;4992274;28;20130;-75
2021/04/17 05:55:32;;;;;;;25.65;14.38;;;3.30;90.90;;;;;;4992254;28;20630;-75
2021/04/17 05:57:58;;;;;;;24.70;14.27;;;3.20;91.40;;;;;;4991616;28;20121;-76
2021/04/17 06:00:24;;;;;;;21.48;14.90;;;3.20;92.70;;;;;;5008756;28;20030;-75
2021/04/17 06:02:54;;;;;;;26.15;16.75;;;3.30;92.60;;;;;;4991953;28;20033;-75
2021/04/17 06:05:20;;;;;;;26.50;15.55;;;3.50;92.00;;;;;;4992431;28;20050;-74
2021/04/17 06:07:46;;;;;;;24.92;15.85;;;3.30;92.40;;;;;;5011109;28;20538;-75
2021/04/17 06:10:13;;;;;;;24.90;15.70;;;3.20;93.50;;;;;;5011515;28;20030;-75
2021/04/17 06:12:38;;;;;;;27.65;16.05;;;3.30;93.50;;;;;;5012825;28;20026;-75
2021/04/17 06:15:05;;;;;;;26.80;15.35;;;3.20;92.70;;;;;;5012724;28;20760;-75
2021/04/17 06:17:31;;;;;;;26.58;15.35;;;3.30;93.90;;;;;;5011169;28;20053;-74
2021/04/17 06:19:57;;;;;;;26.50;16.23;;;3.20;93.50;;;;;;5012824;28;20018;-75
2021/04/17 06:22:23;;;;;;;26.05;16.15;;;3.20;94.50;;;;;;5012685;28;20536;-75
2021/04/17 06:24:48;;;;;;;30.17;16.38;;;3.20;94.30;;;;;;5010441;28;20386;-75
2021/04/17 06:27:14;;;;;;;33.03;15.43;;;3.20;95.50;;;;;;5011341;28;20014;-75
2021/04/17 06:29:40;;;;;;;25.02;15.23;;;3.30;94.50;;;;;;5012602;28;20034;-75
2021/04/17 06:32:06;;;;;;;26.75;16.38;;;3.50;93.80;;;;;;5010946;28;20073;-75
2021/04/17 06:34:32;;;;;;;27.45;16.83;;;3.60;94.20;;;;;;5012518;28;20026;-75
2021/04/17 06:36:58;;;;;;;23.77;16.67;;;3.80;94.10;;;;;;5012209;28;20392;-75
2021/04/17 06:39:24;;;;;;;25.48;15.13;;;3.70;93.70;;;;;;5012435;28;20034;-75
2021/04/17 06:41:53;;;;;;;28.85;15.85;;;4.00;94.50;;;;;;5012382;28;20477;-75
2021/04/17 06:44:21;;;;;;;36.88;18.30;;;4.10;93.60;;;;;;5012276;28;20026;-75
2021/04/17 06:46:47;;;;;;;37.80;21.40;;;4.10;93.60;;;;;;5012026;28;20030;-75
2021/04/17 06:49:15;;;;;;;38.13;19.90;;;4.00;93.20;;;;;;5012298;28;20041;-76
2021/04/17 06:51:45;;;;;;;37.90;21.10;;;4.00;93.90;;;;;;5012021;28;20049;-76
2021/04/17 06:54:14;;;;;;;40.70;22.35;;;4.20;93.60;;;;;;5012213;28;20049;-75
2021/04/17 06:56:42;;;;;;;35.83;20.77;;;4.40;93.20;;;;;;5010303;28;20382;-75
2021/04/17 06:59:09;;;;;;;36.38;21.27;;;4.40;93.40;;;;;;5012003;28;20022;-75
2021/04/17 07:01:41;;;;;;;37.72;22.77;;;4.40;93.00;;;;;;5011707;28;20481;-75
2021/04/17 07:04:07;;;;;;;32.33;21.80;;;4.60;92.70;;;;;;5011876;28;20022;-75
2021/04/17 07:06:33;;;;;;;36.50;22.65;;;4.80;92.20;;;;;;5011979;28;20053;-75
2021/04/17 07:08:59;;;;;;;36.42;22.40;;;5.10;91.50;;;;;;5012034;28;20037;-75
2021/04/17 07:11:25;;;;;;;34.13;21.42;;;5.10;90.60;;;;;;5012118;28;20452;-75
2021/04/17 07:14:13;;;;;;;31.92;21.13;;;5.00;90.60;;;;;;5010818;28;20034;-76
2021/04/17 07:16:59;;;;;;;36.42;20.73;;;5.10;90.40;;;;;;5011908;28;20028;-77
2021/04/17 07:19:59;;;;;;;32.00;20.42;;;5.20;90.20;;;;;;5012029;28;20030;-76
2021/04/17 07:22:31;;;;;;;30.00;20.45;;;5.30;89.70;;;;;;5011996;28;20541;-76
2021/04/17 07:25:15;;;;;;;37.78;21.70;;;5.50;89.60;;;;;;4994385;28;20359;-75
2021/04/17 07:27:42;;;;;;;37.08;20.20;;;5.70;89.10;;;;;;5010338;28;20038;-75
2021/04/17 07:30:17;;;;;;;29.05;19.48;;;5.70;87.20;;;;;;5010637;28;20084;-77
2021/04/17 07:32:46;;;;;;;36.80;21.23;;;5.90;88.40;;;;;;5010603;28;20520;-75
2021/04/17 07:35:20;;;;;;;34.13;21.38;;;6.00;87.00;;;;;;5012961;28;20034;-76
2021/04/17 07:37:49;;;;;;;39.35;23.05;;;6.00;88.20;;;;;;5015453;28;20080;-75
2021/04/17 07:40:19;;;;;;;34.35;22.45;;;5.90;89.70;;;;;;5015614;28;20037;-75
2021/04/17 07:42:49;;;;;;;37.90;21.02;;;6.10;89.40;;;;;;5014416;28;20021;-76
2021/04/17 07:45:48;;;;;;;36.00;20.23;;;6.10;88.20;;;;;;5015528;28;20018;-75
2021/04/17 07:48:28;;;;;;;39.65;21.67;;;6.10;88.50;;;;;;4997875;28;20041;-75
2021/04/17 07:50:55;;;;;;;32.00;20.60;;;6.10;88.60;;;;;;4995843;28;20390;-75
2021/04/17 07:53:41;;;;;;;35.72;19.58;;;6.30;87.00;;;;;;4995807;28;20497;-75
2021/04/17 07:56:30;;;;;;;34.33;20.65;;;6.40;86.40;;;;;;4994255;28;20557;-75
2021/04/17 07:59:00;;;;;;;32.10;20.75;;;6.60;86.70;;;;;;4994453;28;20399;-76
2021/04/17 08:01:29;;;;;;;31.42;20.00;;;6.50;84.60;;;;;;4994388;28;20041;-75
2021/04/17 08:03:57;;;;;;;31.23;18.63;;;6.30;86.30;;;;;;4995653;28;20133;-75
2021/04/17 08:06:25;;;;;;;39.50;19.50;;;6.50;85.60;;;;;;4994081;28;20057;-75
2021/04/17 08:08:52;;;;;;;24.92;17.08;;;6.80;83.40;;;;;;4995386;28;20054;-76
2021/04/17 08:11:20;;;;;;;35.95;17.85;;;7.20;80.40;;;;;;4994296;28;20054;-76
2021/04/17 08:13:47;;;;;;;32.63;18.90;;;7.50;78.80;;;;;;5010583;28;20101;-76
2021/04/17 08:16:13;;;;;;;29.48;19.65;;;7.30;78.60;;;;;;4995071;28;20057;-76
2021/04/17 08:18:39;;;;;;;31.38;19.02;;;7.00;80.50;;;;;;4995370;28;20054;-75
2021/04/17 08:21:07;;;;;;;29.08;18.67;;;6.90;82.00;;;;;;4995377;28;20101;-75
2021/04/17 08:23:34;;;;;;;25.42;18.00;;;7.00;82.10;;;;;;4995266;28;20045;-76
2021/04/17 08:26:00;;;;;;;27.25;18.23;;;7.30;81.20;;;;;;4993653;28;20113;-75
2021/04/17 08:28:28;;;;;;;29.98;19.77;;;7.20;79.40;;;;;;4995156;28;20110;-75
2021/04/17 08:31:27;;;;;;;33.25;19.67;;;7.00;80.80;;;;;;4995205;28;20060;-76
2021/04/17 08:34:10;;;;;;;35.05;20.02;;;7.00;81.30;;;;;;4995644;28;20038;-76
2021/04/17 08:36:40;;;;;;;32.28;19.90;;;6.70;81.70;;;;;;4993678;28;20022;-79
2021/04/17 08:39:07;;;;;;;29.92;18.90;;;6.70;82.00;;;;;;4995743;28;20030;-75
2021/04/17 08:41:43;;;;;;;33.22;18.05;;;6.90;82.10;;;;;;4994957;28;20026;-75
2021/04/17 08:44:27;;;;;;;27.63;17.85;;;7.20;80.20;;;;;;4994906;28;20045;-75
2021/04/17 08:46:54;;;;;;;27.23;18.52;;;7.60;77.30;;;;;;4993573;28;20026;-75
2021/04/17 08:49:23;;;;;;;27.75;18.27;;;7.60;77.20;;;;;;4994774;28;20058;-75
2021/04/17 08:51:49;;;;;;;37.08;18.10;;;7.60;76.90;;;;;;4994892;28;20026;-75
2021/04/17 08:54:17;;;;;;;32.70;18.50;;;7.60;78.10;;;;;;4993629;28;20031;-75
2021/04/17 08:56:58;;;;;;;34.33;18.42;;;7.50;76.50;;;;;;4994264;28;20034;-75
2021/04/17 08:59:35;;;;;;;28.67;18.58;;;7.50;76.70;;;;;;4993122;28;20070;-75
2021/04/17 09:02:08;;;;;;;27.65;18.95;;;7.70;76.10;;;;;;4994707;28;20029;-77
2021/04/17 09:04:37;;;;;;;43.67;21.10;;;7.70;75.70;;;;;;4994962;28;20041;-76
2021/04/17 09:07:17;;;;;;;31.92;19.98;;;7.50;77.60;;;;;;4994402;28;20387;-76
2021/04/17 09:09:43;;;;;;;31.30;19.17;;;7.60;77.90;;;;;;4995056;28;20427;-76
2021/04/17 09:12:09;;;;;;;26.90;18.85;;;7.60;77.60;;;;;;4994446;28;20050;-76
2021/04/17 09:14:36;;;;;;;35.58;20.45;;;7.30;77.30;;;;;;4994269;28;20398;-76
2021/04/17 09:17:06;;;;;;;29.33;18.88;;;7.30;77.00;;;;;;4994578;28;20022;-76
2021/04/17 09:19:45;;;;;;;28.00;18.80;;;7.10;77.10;;;;;;4991201;28;20113;-76
2021/04/17 09:22:26;;;;;;;28.50;18.17;;;7.10;77.80;;;;;;4984355;28;20029;-76
2021/04/17 09:24:59;;;;;;;28.30;18.60;;;7.20;77.50;;;;;;4961304;28;20027;-76
2021/04/17 09:27:35;;;;;;;33.92;18.98;;;7.20;76.80;;;;;;4974561;28;20027;-76
2021/04/17 09:30:21;;;;;;;43.83;20.27;;;7.20;75.80;;;;;;4994312;28;20034;-75
2021/04/17 09:32:54;;;;;;;27.92;17.45;;;7.40;75.70;;;;;;5013199;28;20033;-76
2021/04/17 09:35:21;;;;;;;27.30;17.35;;;7.50;75.70;;;;;;5013410;28;20083;-76
2021/04/17 09:38:04;;;;;;;27.58;18.30;;;7.70;76.00;;;;;;4996814;28;20026;-76
2021/04/17 09:40:31;;;;;;;27.02;17.38;;;7.80;74.90;;;;;;4993810;28;20036;-76
2021/04/17 09:42:57;;;;;;;31.15;18.35;;;8.10;74.80;;;;;;4993750;28;20490;-76
2021/04/17 09:45:39;;;;;;;36.67;17.17;;;8.60;73.40;;;;;;4993607;28;20037;-75
2021/04/17 09:48:07;;;;;;;30.98;18.73;;;8.60;71.90;;;;;;4993340;28;20543;-76
2021/04/17 09:50:35;;;;;;;26.83;16.73;;;8.60;70.20;;;;;;5009405;28;20037;-76
2021/04/17 09:53:24;;;;;;;34.00;17.60;;;8.70;70.40;;;;;;4992978;28;20027;-76
2021/04/17 09:55:53;;;;;;;23.63;16.33;;;8.70;69.30;;;;;;4973085;28;20086;-77
2021/04/17 09:58:27;;;;;;;29.70;17.63;;;8.70;70.20;;;;;;4972519;28;20065;-76
2021/04/17 10:00:54;;;;;;;27.65;17.83;;;8.50;71.10;;;;;;4974007;28;20028;-75
2021/04/17 10:03:31;;;;;;;24.25;16.48;;;8.50;71.50;;;;;;4973963;28;20034;-76
2021/04/17 10:05:58;;;;;;;47.40;20.58;;;8.40;71.60;;;;;;4972426;28;20479;-76
2021/04/17 10:08:30;;;;;;;25.38;16.95;;;8.30;72.20;;;;;;4973841;28;20031;-76
2021/04/17 10:10:55;;;;;;;31.10;17.33;;;8.30;71.20;;;;;;4972534;28;20038;-75
2021/04/17 10:13:42;;;;;;;41.92;19.88;;;8.00;71.50;;;;;;4973780;28;20043;-76
2021/04/17 10:16:09;;;;;;;24.58;16.40;;;8.10;72.50;;;;;;4973689;28;20026;-76
2021/04/17 10:18:36;;;;;;;28.02;19.35;;;8.20;72.00;;;;;;4973772;28;20058;-76
2021/04/17 10:21:04;;;;;;;22.08;15.98;;;7.90;72.80;;;;;;4973831;28;20019;-76
2021/04/17 10:23:30;;;;;;;25.05;16.33;;;7.90;71.80;;;;;;4973578;28;20132;-76
2021/04/17 10:26:04;;;;;;;24.08;16.90;;;8.00;71.70;;;;;;4972323;28;20030;-76
2021/04/17 10:28:31;;;;;;;24.95;17.58;;;7.80;72.10;;;;;;4973551;28;20483;-75
2021/04/17 10:31:08;;;;;;;26.92;17.45;;;7.80;72.10;;;;;;4973566;28;20054;-76
2021/04/17 10:33:33;;;;;;;27.42;17.33;;;7.70;72.70;;;;;;4988567;28;20070;-76
2021/04/17 10:36:02;;;;;;;23.73;15.52;;;7.50;73.70;;;;;;4973235;28;20063;-76
2021/04/17 10:38:34;;;;;;;27.05;17.20;;;7.50;74.50;;;;;;4988255;28;20026;-76
2021/04/17 10:41:02;;;;;;;31.13;18.77;;;7.50;74.60;;;;;;4988633;28;20446;-75
2021/04/17 10:43:28;;;;;;;30.13;18.15;;;7.70;75.00;;;;;;4973365;28;20019;-76
2021/04/17 10:46:00;;;;;;;30.67;18.27;;;7.50;75.10;;;;;;4988085;28;20034;-76
2021/04/17 10:48:27;;;;;;;36.70;18.00;;;7.60;74.50;;;;;;4972096;28;20066;-76
2021/04/17 10:51:04;;;;;;;26.05;16.85;;;7.50;74.20;;;;;;4973014;28;20106;-76
2021/04/17 10:53:38;;;;;;;25.27;16.88;;;7.60;73.70;;;;;;4988254;28;20046;-76
2021/04/17 10:56:14;;;;;;;24.17;15.20;;;7.40;74.70;;;;;;4988069;28;20089;-75
2021/04/17 10:58:41;;;;;;;23.13;16.05;;;7.60;74.00;;;;;;4973112;28;20031;-76
2021/04/17 11:01:24;;;;;;;20.80;14.05;;;7.80;73.00;;;;;;4973322;28;20027;-76
2021/04/17 11:03:52;;;;;;;27.40;15.38;;;8.00;72.50;;;;;;4972189;28;20488;-76
2021/04/17 11:06:23;;;;;;;24.25;14.43;;;7.90;71.60;;;;;;4971682;28;20019;-76
2021/04/17 11:09:07;;;;;;;19.10;14.35;;;7.90;71.70;;;;;;4973191;28;20034;-76
2021/04/17 11:11:34;;;;;;;21.58;14.55;;;7.90;70.90;;;;;;4991540;28;20122;-76
2021/04/17 11:14:03;;;;;;;24.30;12.95;;;7.90;70.80;;;;;;4991941;28;20023;-76
2021/04/17 11:16:47;;;;;;;23.38;13.38;;;8.00;70.40;;;;;;4976720;28;20428;-75
2021/04/17 11:19:42;;;;;;;20.80;13.32;;;8.10;69.30;;;;;;4977070;28;20561;-76
2021/04/17 11:22:15;;;;;;;24.20;13.30;;;8.10;69.60;;;;;;4967816;28;20418;-76
2021/04/17 11:24:56;;;;;;;17.27;11.52;;;8.10;70.20;;;;;;4976950;28;20034;-76
2021/04/17 11:27:22;;;;;;;17.80;12.27;;;8.20;70.00;;;;;;4976667;28;20081;-75
2021/04/17 11:29:48;;;;;;;28.05;12.23;;;8.20;70.90;;;;;;4976744;28;20019;-76
2021/04/17 11:32:14;;;;;;;19.10;13.20;;;8.10;72.00;;;;;;4996745;23;20046;-73
2021/04/17 11:34:44;;;;;;;17.70;12.05;;;8.00;72.60;;;;;;5015831;28;20040;-72
2021/04/17 11:37:10;;;;;;;32.08;12.95;;;8.00;72.90;;;;;;5014288;28;20026;-72
2021/04/17 11:39:35;;;;;;;19.67;12.55;;;8.00;72.70;;;;;;5015549;28;20029;-72
2021/04/17 11:42:01;;;;;;;16.08;10.05;;;8.10;71.60;;;;;;4998152;28;20164;-72
2021/04/17 11:44:27;;;;;;;14.15;10.48;;;8.10;71.40;;;;;;5014422;28;20044;-75
2021/04/17 11:46:53;;;;;;;14.50;10.27;;;8.10;72.20;;;;;;5013897;28;20033;-72
2021/04/17 11:49:18;;;;;;;15.75;10.48;;;8.30;71.00;;;;;;5015665;28;20366;-72
2021/04/17 11:51:44;;;;;;;13.05;8.98;;;8.20;70.40;;;;;;5015288;28;20397;-72
2021/04/17 11:54:10;;;;;;;18.67;10.00;;;8.30;69.70;;;;;;5014136;28;20057;-72
2021/04/17 11:56:36;;;;;;;14.93;9.68;;;8.00;69.90;;;;;;5015290;28;20027;-72
2021/04/17 11:59:02;;;;;;;17.13;9.63;;;8.10;70.80;;;;;;5030758;28;20026;-72
2021/04/17 12:01:28;;;;;;;14.50;9.30;;;8.10;69.40;;;;;;5014545;28;20026;-71
2021/04/17 12:03:54;;;;;;;9.40;7.47;;;8.30;70.10;;;;;;5015593;28;20026;-72
2021/04/17 12:06:25;;;;;;;13.65;8.88;;;8.70;68.60;;;;;;5013964;28;20640;-72
2021/04/17 12:08:51;;;;;;;13.98;9.73;;;9.00;68.00;;;;;;5014143;28;20156;-72
2021/04/17 12:11:16;;;;;;;14.18;7.80;;;9.00;66.60;;;;;;5014283;28;20140;-71
2021/04/17 12:13:42;;;;;;;13.90;8.95;;;9.20;67.10;;;;;;5016953;28;20033;-72
2021/04/17 12:16:08;;;;;;;14.15;9.38;;;9.50;65.40;;;;;;5033703;28;20025;-72
2021/04/17 12:18:33;;;;;;;9.77;6.95;;;9.60;64.40;;;;;;5033403;28;20396;-72
2021/04/17 12:20:59;;;;;;;10.15;7.45;;;10.00;64.80;;;;;;5034414;28;20024;-72
2021/04/17 12:23:25;;;;;;;10.18;7.15;;;10.30;63.20;;;;;;5033523;28;20022;-72
2021/04/17 12:25:51;;;;;;;14.07;8.40;;;10.00;62.20;;;;;;5033406;28;20021;-73
2021/04/17 12:28:17;;;;;;;16.70;11.63;;;9.80;64.70;;;;;;5030829;28;20104;-72
2021/04/17 12:30:43;;;;;;;13.70;7.88;;;9.90;64.10;;;;;;5034604;28;20029;-72
2021/04/17 12:33:10;;;;;;;13.50;8.57;;;9.70;65.60;;;;;;5033284;28;20068;-72
2021/04/17 12:35:38;;;;;;;15.00;8.35;;;9.50;64.40;;;;;;5033249;28;20740;-73
2021/04/17 12:38:05;;;;;;;14.65;7.70;;;9.40;65.50;;;;;;5034379;28;20033;-73
2021/04/17 12:40:31;;;;;;;11.88;8.20;;;9.90;66.20;;;;;;5015383;28;20026;-72
2021/04/17 12:42:57;;;;;;;18.35;9.00;;;10.00;63.10;;;;;;5007805;28;20111;-72
2021/04/17 12:45:23;;;;;;;12.13;7.75;;;10.20;62.70;;;;;;4998090;28;20105;-72
2021/04/17 12:47:49;;;;;;;14.20;8.68;;;10.30;62.80;;;;;;4995133;28;20057;-72